sensor_id;sensor_type;location;lat;lon;timestamp;pressure;altitude;pressure_sealevel;temperature;humidity
46722;BME280;32455;43.430;23.136;2024-03-02T01:10:05;97767.19;;;6.57;100.00
46722;BME280;32455;43.430;23.136;2024-03-02T01:12:50;97757.13;;;6.52;100.00
46722;BME280;32455;43.430;23.136;2024-03-02T01:15:35;97757.78;;;6.35;100.00
46722;BME280;32455;43.430;23.136;2024-03-02T01:18:22;97751.00;;;6.39;100.00
46722;BME280;32455;43.430;23.136;2024-03-02T01:21:07;97755.72;;;6.37;100.00
46722;BME280;32455;43.430;23.136;2024-03-02T01:23:53;97759.00;;;6.39;100.00
46722;BME280;32455;43.430;23.136;2024-03-02T01:26:38;97754.28;;;6.34;100.00
46722;BME280;32455;43.430;23.136;2024-03-02T01:29:24;97751.63;;;6.34;100.00
46722;BME280;32455;43.430;23.136;2024-03-02T01:32:10;97742.56;;;6.35;100.00
46722;BME280;32455;43.430;23.136;2024-03-02T01:34:55;97743.19;;;6.17;100.00
46722;BME280;32455;43.430;23.136;2024-03-02T01:37:41;97741.34;;;6.31;100.00
46722;BME280;32455;43.430;23.136;2024-03-02T01:40:27;97740.34;;;6.25;100.00
46722;BME280;32455;43.430;23.136;2024-03-02T01:43:13;97742.38;;;6.10;100.00
46722;BME280;32455;43.430;23.136;2024-03-02T01:45:59;97739.91;;;6.02;100.00
46722;BME280;32455;43.430;23.136;2024-03-02T01:48:44;97741.56;;;6.23;100.00
46722;BME280;32455;43.430;23.136;2024-03-02T01:51:30;97729.84;;;6.31;100.00
46722;BME280;32455;43.430;23.136;2024-03-02T01:54:15;97725.31;;;6.38;100.00
46722;BME280;32455;43.430;23.136;2024-03-02T01:57:00;97724.94;;;6.34;100.00
46722;BME280;32455;43.430;23.136;2024-03-02T01:59:46;97726.97;;;6.12;100.00
46722;BME280;32455;43.430;23.136;2024-03-02T02:02:36;97728.81;;;6.25;100.00
46722;BME280;32455;43.430;23.136;2024-03-02T02:05:21;97732.53;;;6.31;100.00
46722;BME280;32455;43.430;23.136;2024-03-02T02:08:07;97722.44;;;6.33;100.00
46722;BME280;32455;43.430;23.136;2024-03-02T02:10:52;97726.75;;;6.34;100.00
46722;BME280;32455;43.430;23.136;2024-03-02T02:13:37;97726.75;;;6.34;100.00
46722;BME280;32455;43.430;23.136;2024-03-02T02:16:22;97715.88;;;6.28;100.00
46722;BME280;32455;43.430;23.136;2024-03-02T02:19:08;97700.91;;;6.34;100.00
46722;BME280;32455;43.430;23.136;2024-03-02T02:21:55;97694.16;;;6.38;100.00
46722;BME280;32455;43.430;23.136;2024-03-02T02:24:40;97692.28;;;6.12;100.00
46722;BME280;32455;43.430;23.136;2024-03-02T02:27:26;97690.47;;;6.06;100.00
46722;BME280;32455;43.430;23.136;2024-03-02T02:30:12;97705.03;;;6.30;100.00
46722;BME280;32455;43.430;23.136;2024-03-02T02:32:58;97696.59;;;6.40;100.00
46722;BME280;32455;43.430;23.136;2024-03-02T02:35:44;97701.31;;;6.38;100.00
46722;BME280;32455;43.430;23.136;2024-03-02T02:38:30;97706.47;;;6.26;100.00
46722;BME280;32455;43.430;23.136;2024-03-02T02:41:18;97705.41;;;6.34;100.00
46722;BME280;32455;43.430;23.136;2024-03-02T02:44:04;97705.44;;;6.20;100.00
46722;BME280;32455;43.430;23.136;2024-03-02T02:46:49;97713.03;;;6.30;100.00
46722;BME280;32455;43.430;23.136;2024-03-02T02:49:34;97712.59;;;6.33;100.00
46722;BME280;32455;43.430;23.136;2024-03-02T02:52:20;97702.75;;;6.40;100.00
46722;BME280;32455;43.430;23.136;2024-03-02T02:55:07;97700.69;;;6.42;100.00
46722;BME280;32455;43.430;23.136;2024-03-02T02:57:53;97703.34;;;6.42;100.00
46722;BME280;32455;43.430;23.136;2024-03-02T03:00:38;97700.69;;;6.42;100.00
46722;BME280;32455;43.430;23.136;2024-03-02T03:03:23;97701.94;;;6.33;100.00
46722;BME280;32455;43.430;23.136;2024-03-02T03:06:09;97703.34;;;6.42;100.00
46722;BME280;32455;43.430;23.136;2024-03-02T03:08:55;97699.03;;;6.41;100.00
46722;BME280;32455;43.430;23.136;2024-03-02T03:11:40;97700.69;;;6.49;100.00
46722;BME280;32455;43.430;23.136;2024-03-02T03:14:25;97697.41;;;6.47;100.00
46722;BME280;32455;43.430;23.136;2024-03-02T03:17:11;97699.69;;;6.43;100.00
46722;BME280;32455;43.430;23.136;2024-03-02T03:19:56;97707.69;;;6.10;100.00
46722;BME280;32455;43.430;23.136;2024-03-02T03:22:42;97709.75;;;6.15;100.00
46722;BME280;32455;43.430;23.136;2024-03-02T03:25:28;97716.09;;;6.07;100.00
46722;BME280;32455;43.430;23.136;2024-03-02T03:28:13;97725.75;;;6.01;100.00
46722;BME280;32455;43.430;23.136;2024-03-02T03:30:59;97733.94;;;6.20;100.00
46722;BME280;32455;43.430;23.136;2024-03-02T03:33:44;97729.22;;;6.28;100.00
46722;BME280;32455;43.430;23.136;2024-03-02T03:36:30;97728.22;;;6.30;100.00
46722;BME280;32455;43.430;23.136;2024-03-02T03:39:16;97734.56;;;6.42;100.00
46722;BME280;32455;43.430;23.136;2024-03-02T03:42:02;97738.25;;;6.21;100.00
46722;BME280;32455;43.430;23.136;2024-03-02T03:44:48;97739.91;;;6.35;100.00
46722;BME280;32455;43.430;23.136;2024-03-02T03:47:33;97735.81;;;6.13;100.00
46722;BME280;32455;43.430;23.136;2024-03-02T03:50:18;97737.03;;;6.30;100.00
46722;BME280;32455;43.430;23.136;2024-03-02T03:53:04;97740.53;;;6.24;100.00
46722;BME280;32455;43.430;23.136;2024-03-02T03:55:49;97743.38;;;6.29;100.00
46722;BME280;32455;43.430;23.136;2024-03-02T03:58:34;97736.81;;;6.45;100.00
46722;BME280;32455;43.430;23.136;2024-03-02T04:01:20;97732.09;;;6.34;100.00
46722;BME280;32455;43.430;23.136;2024-03-02T04:04:07;97726.97;;;6.32;100.00
46722;BME280;32455;43.430;23.136;2024-03-02T04:06:51;97727.59;;;6.27;100.00
46722;BME280;32455;43.430;23.136;2024-03-02T04:09:37;97716.91;;;6.27;100.00
46722;BME280;32455;43.430;23.136;2024-03-02T04:12:23;97715.09;;;6.21;100.00
46722;BME280;32455;43.430;23.136;2024-03-02T04:15:08;97712.59;;;6.20;100.00
46722;BME280;32455;43.430;23.136;2024-03-02T04:17:53;97723.50;;;6.18;100.00
46722;BME280;32455;43.430;23.136;2024-03-02T04:20:40;97723.31;;;6.13;100.00
46722;BME280;32455;43.430;23.136;2024-03-02T04:23:26;97726.78;;;6.27;100.00
46722;BME280;32455;43.430;23.136;2024-03-02T04:26:11;97728.81;;;6.32;100.00
46722;BME280;32455;43.430;23.136;2024-03-02T04:28:56;97735.38;;;6.36;100.00
46722;BME280;32455;43.430;23.136;2024-03-02T04:31:42;97724.69;;;6.49;100.00
46722;BME280;32455;43.430;23.136;2024-03-02T04:34:27;97728.63;;;6.40;100.00
46722;BME280;32455;43.430;23.136;2024-03-02T04:37:13;97734.16;;;6.18;100.00
46722;BME280;32455;43.430;23.136;2024-03-02T04:39:59;97731.09;;;6.21;100.00
46722;BME280;32455;43.430;23.136;2024-03-02T04:42:44;97734.16;;;6.25;100.00
46722;BME280;32455;43.430;23.136;2024-03-02T04:45:30;97733.34;;;6.31;100.00
46722;BME280;32455;43.430;23.136;2024-03-02T04:48:15;97730.25;;;6.27;100.00
46722;BME280;32455;43.430;23.136;2024-03-02T04:51:01;97733.13;;;5.99;100.00
46722;BME280;32455;43.430;23.136;2024-03-02T04:53:46;97743.38;;;6.16;100.00
46722;BME280;32455;43.430;23.136;2024-03-02T04:56:31;97738.66;;;5.91;100.00
46722;BME280;32455;43.430;23.136;2024-03-02T04:59:17;97745.78;;;5.77;100.00
46722;BME280;32455;43.430;23.136;2024-03-02T05:02:02;97748.94;;;6.21;100.00
46722;BME280;32455;43.430;23.136;2024-03-02T05:04:48;97755.31;;;6.13;100.00
46722;BME280;32455;43.430;23.136;2024-03-02T05:07:33;97747.72;;;6.17;100.00
46722;BME280;32455;43.430;23.136;2024-03-02T05:10:18;97748.94;;;6.21;100.00
46722;BME280;32455;43.430;23.136;2024-03-02T05:13:03;97752.63;;;6.20;100.00
46722;BME280;32455;43.430;23.136;2024-03-02T05:15:49;97759.59;;;6.14;100.00
46722;BME280;32455;43.430;23.136;2024-03-02T05:18:34;97749.78;;;6.08;100.00
46722;BME280;32455;43.430;23.136;2024-03-02T05:21:18;97754.47;;;6.06;100.00
46722;BME280;32455;43.430;23.136;2024-03-02T05:24:04;97761.66;;;6.06;100.00
46722;BME280;32455;43.430;23.136;2024-03-02T05:26:49;97770.06;;;5.96;100.00
46722;BME280;32455;43.430;23.136;2024-03-02T05:29:34;97760.63;;;6.07;100.00
46722;BME280;32455;43.430;23.136;2024-03-02T05:32:20;97762.50;;;6.13;100.00
46722;BME280;32455;43.430;23.136;2024-03-02T05:35:06;97763.31;;;6.13;100.00
46722;BME280;32455;43.430;23.136;2024-03-02T05:37:51;97768.22;;;6.16;100.00
46722;BME280;32455;43.430;23.136;2024-03-02T05:40:37;97767.84;;;6.26;100.00
46722;BME280;32455;43.430;23.136;2024-03-02T05:43:22;97774.38;;;6.23;100.00
46722;BME280;32455;43.430;23.136;2024-03-02T05:46:08;97773.38;;;6.31;100.00
46722;BME280;32455;43.430;23.136;2024-03-02T05:48:53;97776.66;;;6.26;100.00
46722;BME280;32455;43.430;23.136;2024-03-02T05:51:38;97780.53;;;6.11;100.00
46722;BME280;32455;43.430;23.136;2024-03-02T05:54:23;97782.78;;;6.20;100.00
46722;BME280;32455;43.430;23.136;2024-03-02T05:57:09;97788.13;;;6.34;100.00
46722;BME280;32455;43.430;23.136;2024-03-02T06:00:19;97792.22;;;6.16;100.00
46722;BME280;32455;43.430;23.136;2024-03-02T06:03:05;97786.25;;;6.08;100.00
46722;BME280;32455;43.430;23.136;2024-03-02T06:05:51;97794.25;;;6.08;100.00
46722;BME280;32455;43.430;23.136;2024-03-02T06:08:37;97788.34;;;6.25;100.00
46722;BME280;32455;43.430;23.136;2024-03-02T06:11:23;97802.28;;;6.21;100.00
46722;BME280;32455;43.430;23.136;2024-03-02T06:14:08;97801.25;;;6.09;100.00
46722;BME280;32455;43.430;23.136;2024-03-02T06:16:54;97798.59;;;6.09;100.00
46722;BME280;32455;43.430;23.136;2024-03-02T06:19:39;97794.06;;;6.16;100.00
46722;BME280;32455;43.430;23.136;2024-03-02T06:22:24;97791.84;;;6.26;100.00
46722;BME280;32455;43.430;23.136;2024-03-02T06:25:10;97802.91;;;6.16;100.00
46722;BME280;32455;43.430;23.136;2024-03-02T06:27:56;97800.66;;;6.26;100.00
46722;BME280;32455;43.430;23.136;2024-03-02T06:30:41;97800.88;;;6.32;100.00
46722;BME280;32455;43.430;23.136;2024-03-02T06:33:28;97799.84;;;6.33;100.00
46722;BME280;32455;43.430;23.136;2024-03-02T06:36:13;97805.19;;;6.26;100.00
46722;BME280;32455;43.430;23.136;2024-03-02T06:39:00;97803.75;;;6.30;100.00
46722;BME280;32455;43.430;23.136;2024-03-02T06:41:46;97806.22;;;6.38;100.00
46722;BME280;32455;43.430;23.136;2024-03-02T06:44:34;97808.69;;;6.40;100.00
46722;BME280;32455;43.430;23.136;2024-03-02T06:47:19;97811.94;;;6.42;100.00
46722;BME280;32455;43.430;23.136;2024-03-02T06:50:05;97814.00;;;6.46;100.00
46722;BME280;32455;43.430;23.136;2024-03-02T06:52:52;97810.72;;;6.44;100.00
46722;BME280;32455;43.430;23.136;2024-03-02T06:55:38;97819.34;;;6.26;100.00
46722;BME280;32455;43.430;23.136;2024-03-02T06:58:23;97813.53;;;6.03;100.00
46722;BME280;32455;43.430;23.136;2024-03-02T07:01:09;97816.44;;;6.01;100.00
46722;BME280;32455;43.430;23.136;2024-03-02T07:03:55;97818.94;;;6.30;100.00
46722;BME280;32455;43.430;23.136;2024-03-02T07:06:40;97816.47;;;6.35;100.00
46722;BME280;32455;43.430;23.136;2024-03-02T07:09:26;97820.16;;;6.40;100.00
46722;BME280;32455;43.430;23.136;2024-03-02T07:12:12;97819.94;;;6.28;100.00
46722;BME280;32455;43.430;23.136;2024-03-02T07:14:57;97825.91;;;6.37;100.00
46722;BME280;32455;43.430;23.136;2024-03-02T07:17:48;97823.63;;;6.21;100.00
46722;BME280;32455;43.430;23.136;2024-03-02T07:20:33;97825.06;;;6.23;100.00
46722;BME280;32455;43.430;23.136;2024-03-02T07:23:19;97834.31;;;6.27;100.00
46722;BME280;32455;43.430;23.136;2024-03-02T07:26:05;97831.44;;;6.42;100.00
46722;BME280;32455;43.430;23.136;2024-03-02T07:28:52;97827.34;;;6.53;100.00
46722;BME280;32455;43.430;23.136;2024-03-02T07:31:38;97832.25;;;6.23;100.00
46722;BME280;32455;43.430;23.136;2024-03-02T07:34:23;97829.19;;;6.33;100.00
46722;BME280;32455;43.430;23.136;2024-03-02T07:37:08;97836.59;;;6.31;100.00
46722;BME280;32455;43.430;23.136;2024-03-02T07:39:54;97840.47;;;6.41;100.00
46722;BME280;32455;43.430;23.136;2024-03-02T07:42:41;97843.75;;;6.37;100.00
46722;BME280;32455;43.430;23.136;2024-03-02T07:45:26;97840.28;;;6.43;100.00
46722;BME280;32455;43.430;23.136;2024-03-02T07:48:13;97851.78;;;6.50;100.00
46722;BME280;32455;43.430;23.136;2024-03-02T07:50:59;97852.59;;;6.50;100.00
46722;BME280;32455;43.430;23.136;2024-03-02T07:53:45;97846.88;;;6.60;100.00
46722;BME280;32455;43.430;23.136;2024-03-02T07:56:30;97844.59;;;6.44;100.00
46722;BME280;32455;43.430;23.136;2024-03-02T07:59:16;97843.34;;;6.46;100.00
46722;BME280;32455;43.430;23.136;2024-03-02T08:02:01;97847.06;;;6.45;100.00
46722;BME280;32455;43.430;23.136;2024-03-02T08:04:47;97853.00;;;6.27;100.00
46722;BME280;32455;43.430;23.136;2024-03-02T08:07:32;97848.91;;;6.45;100.00
46722;BME280;32455;43.430;23.136;2024-03-02T08:10:18;97852.41;;;6.59;100.00
46722;BME280;32455;43.430;23.136;2024-03-02T08:13:03;97853.44;;;6.51;100.00
46722;BME280;32455;43.430;23.136;2024-03-02T08:15:49;97849.13;;;6.57;100.00
46722;BME280;32455;43.430;23.136;2024-03-02T08:18:34;97853.03;;;6.61;100.00
46722;BME280;32455;43.430;23.136;2024-03-02T08:21:19;97865.75;;;6.72;100.00
46722;BME280;32455;43.430;23.136;2024-03-02T08:24:06;97853.03;;;6.67;100.00
46722;BME280;32455;43.430;23.136;2024-03-02T08:26:51;97851.41;;;6.60;100.00
46722;BME280;32455;43.430;23.136;2024-03-02T08:29:36;97858.56;;;6.39;100.00
46722;BME280;32455;43.430;23.136;2024-03-02T08:32:22;97861.84;;;6.55;100.00
46722;BME280;32455;43.430;23.136;2024-03-02T08:35:08;97866.34;;;6.34;100.00
46722;BME280;32455;43.430;23.136;2024-03-02T08:37:53;97871.28;;;6.44;100.00
46722;BME280;32455;43.430;23.136;2024-03-02T08:40:39;97863.47;;;6.36;100.00
46722;BME280;32455;43.430;23.136;2024-03-02T08:43:24;97867.38;;;6.33;100.00
46722;BME280;32455;43.430;23.136;2024-03-02T08:46:10;97865.53;;;6.53;100.00
46722;BME280;32455;43.430;23.136;2024-03-02T08:48:55;97865.53;;;6.40;100.00
46722;BME280;32455;43.430;23.136;2024-03-02T08:51:41;97870.47;;;6.50;100.00
46722;BME280;32455;43.430;23.136;2024-03-02T08:54:25;97865.34;;;6.48;100.00
46722;BME280;32455;43.430;23.136;2024-03-02T08:57:11;97857.94;;;6.44;100.00
46722;BME280;32455;43.430;23.136;2024-03-02T08:59:56;97859.81;;;6.57;100.00
46722;BME280;32455;43.430;23.136;2024-03-02T09:02:43;97872.31;;;6.63;100.00
46722;BME280;32455;43.430;23.136;2024-03-02T09:05:29;97863.91;;;6.66;100.00
46722;BME280;32455;43.430;23.136;2024-03-02T09:08:15;97876.44;;;6.59;100.00
46722;BME280;32455;43.430;23.136;2024-03-02T09:11:00;97866.38;;;6.67;100.00
46722;BME280;32455;43.430;23.136;2024-03-02T09:13:45;97867.19;;;6.55;100.00
46722;BME280;32455;43.430;23.136;2024-03-02T09:16:31;97873.56;;;6.53;100.00
46722;BME280;32455;43.430;23.136;2024-03-02T09:19:16;97871.09;;;6.72;100.00
46722;BME280;32455;43.430;23.136;2024-03-02T09:22:02;97872.75;;;6.66;100.00
46722;BME280;32455;43.430;23.136;2024-03-02T09:24:48;97868.44;;;6.78;100.00
46722;BME280;32455;43.430;23.136;2024-03-02T09:27:37;97874.38;;;6.81;100.00
46722;BME280;32455;43.430;23.136;2024-03-02T09:30:22;97876.84;;;6.62;100.00
46722;BME280;32455;43.430;23.136;2024-03-02T09:33:08;97876.84;;;6.56;100.00
46722;BME280;32455;43.430;23.136;2024-03-02T09:35:53;97872.53;;;6.74;100.00
46722;BME280;32455;43.430;23.136;2024-03-02T09:38:39;97878.06;;;6.80;100.00
46722;BME280;32455;43.430;23.136;2024-03-02T09:41:24;97881.78;;;6.92;100.00
46722;BME280;32455;43.430;23.136;2024-03-02T09:44:10;97882.63;;;6.72;100.00
46722;BME280;32455;43.430;23.136;2024-03-02T09:46:55;97881.38;;;6.88;100.00
46722;BME280;32455;43.430;23.136;2024-03-02T09:49:41;97876.47;;;6.85;100.00
46722;BME280;32455;43.430;23.136;2024-03-02T09:52:26;97883.63;;;6.71;100.00
46722;BME280;32455;43.430;23.136;2024-03-02T09:55:12;97881.56;;;6.67;100.00
46722;BME280;32455;43.430;23.136;2024-03-02T09:57:58;97890.22;;;6.69;100.00
46722;BME280;32455;43.430;23.136;2024-03-02T10:00:44;97891.22;;;6.68;100.00
46722;BME280;32455;43.430;23.136;2024-03-02T10:03:29;97882.38;;;6.54;100.00
46722;BME280;32455;43.430;23.136;2024-03-02T10:06:24;97886.91;;;6.80;100.00
46722;BME280;32455;43.430;23.136;2024-03-02T10:09:10;97882.19;;;6.75;100.00
46722;BME280;32455;43.430;23.136;2024-03-02T10:12:04;97890.00;;;6.77;100.00
46722;BME280;32455;43.430;23.136;2024-03-02T10:14:49;97882.38;;;6.67;100.00
46722;BME280;32455;43.430;23.136;2024-03-02T10:17:49;97883.00;;;6.56;100.00
46722;BME280;32455;43.430;23.136;2024-03-02T10:20:34;97887.09;;;6.59;100.00
46722;BME280;32455;43.430;23.136;2024-03-02T10:23:21;97880.53;;;6.61;100.00
46722;BME280;32455;43.430;23.136;2024-03-02T10:26:18;97880.56;;;6.81;100.00
46722;BME280;32455;43.430;23.136;2024-03-02T10:29:04;97877.88;;;6.88;100.00
46722;BME280;32455;43.430;23.136;2024-03-02T10:31:49;97877.88;;;6.88;100.00
46722;BME280;32455;43.430;23.136;2024-03-02T10:34:35;97873.34;;;6.75;100.00
46722;BME280;32455;43.430;23.136;2024-03-02T10:37:21;97878.50;;;6.83;100.00
46722;BME280;32455;43.430;23.136;2024-03-02T10:40:07;97880.34;;;6.63;100.00
46722;BME280;32455;43.430;23.136;2024-03-02T10:42:53;97878.50;;;6.90;100.00
46722;BME280;32455;43.430;23.136;2024-03-02T10:45:39;97870.88;;;7.00;100.00
46722;BME280;32455;43.430;23.136;2024-03-02T10:48:27;97867.78;;;7.10;100.00
46722;BME280;32455;43.430;23.136;2024-03-02T10:51:13;97863.44;;;7.22;100.00
46722;BME280;32455;43.430;23.136;2024-03-02T10:53:59;97857.94;;;7.03;100.00
46722;BME280;32455;43.430;23.136;2024-03-02T10:56:48;97858.16;;;6.89;100.00
46722;BME280;32455;43.430;23.136;2024-03-02T10:59:35;97861.84;;;7.08;100.00
46722;BME280;32455;43.430;23.136;2024-03-02T11:02:22;97863.88;;;7.12;100.00
46722;BME280;32455;43.430;23.136;2024-03-02T11:05:10;97857.28;;;7.15;100.00
46722;BME280;32455;43.430;23.136;2024-03-02T11:08:07;97863.81;;;7.32;100.00
46722;BME280;32455;43.430;23.136;2024-03-02T11:10:58;97850.28;;;7.34;100.00
46722;BME280;32455;43.430;23.136;2024-03-02T11:13:49;97851.22;;;7.52;100.00
46722;BME280;32455;43.430;23.136;2024-03-02T11:16:36;97857.44;;;7.40;100.00
46722;BME280;32455;43.430;23.136;2024-03-02T11:19:22;97865.75;;;7.05;100.00
46722;BME280;32455;43.430;23.136;2024-03-02T11:22:09;97855.66;;;7.14;100.00
46722;BME280;32455;43.430;23.136;2024-03-02T11:24:54;97850.09;;;7.28;100.00
46722;BME280;32455;43.430;23.136;2024-03-02T11:33:24;97850.91;;;7.29;100.00
46722;BME280;32455;43.430;23.136;2024-03-02T11:36:11;97850.69;;;7.31;100.00
46722;BME280;32455;43.430;23.136;2024-03-02T11:38:56;97848.03;;;7.17;100.00
46722;BME280;32455;43.430;23.136;2024-03-02T11:41:42;97850.00;;;7.48;100.00
46722;BME280;32455;43.430;23.136;2024-03-02T11:44:27;97838.91;;;7.51;100.00
46722;BME280;32455;43.430;23.136;2024-03-02T11:47:15;97844.84;;;7.53;100.00
46722;BME280;32455;43.430;23.136;2024-03-02T11:50:01;97843.59;;;7.63;100.00
46722;BME280;32455;43.430;23.136;2024-03-02T11:52:47;97846.34;;;7.36;100.00
46722;BME280;32455;43.430;23.136;2024-03-02T11:55:35;97838.13;;;7.31;100.00
46722;BME280;32455;43.430;23.136;2024-03-02T11:58:21;97846.75;;;7.46;100.00
46722;BME280;32455;43.430;23.136;2024-03-02T12:01:10;97840.38;;;7.41;100.00
46722;BME280;32455;43.430;23.136;2024-03-02T12:03:58;97843.66;;;7.43;100.00
46722;BME280;32455;43.430;23.136;2024-03-02T12:06:44;97844.59;;;7.68;100.00
46722;BME280;32455;43.430;23.136;2024-03-02T12:09:31;97837.16;;;7.70;100.00
46722;BME280;32455;43.430;23.136;2024-03-02T12:12:17;97842.72;;;7.75;100.00
46722;BME280;32455;43.430;23.136;2024-03-02T12:15:05;97840.19;;;7.87;100.00
46722;BME280;32455;43.430;23.136;2024-03-02T12:17:56;97852.09;;;7.98;100.00
46722;BME280;32455;43.430;23.136;2024-03-02T12:20:41;97842.38;;;8.03;100.00
46722;BME280;32455;43.430;23.136;2024-03-02T12:23:27;97850.78;;;8.14;100.00
46722;BME280;32455;43.430;23.136;2024-03-02T12:26:13;97845.19;;;8.15;100.00
46722;BME280;32455;43.430;23.136;2024-03-02T12:28:58;97846.09;;;7.96;100.00
46722;BME280;32455;43.430;23.136;2024-03-02T12:31:44;97847.97;;;7.50;100.00
46722;BME280;32455;43.430;23.136;2024-03-02T12:34:33;97844.47;;;7.95;100.00
46722;BME280;32455;43.430;23.136;2024-03-02T12:37:19;97843.66;;;7.94;100.00
46722;BME280;32455;43.430;23.136;2024-03-02T12:40:04;97841.88;;;7.82;100.00
46722;BME280;32455;43.430;23.136;2024-03-02T12:42:51;97846.47;;;8.06;100.00
46722;BME280;32455;43.430;23.136;2024-03-02T12:45:37;97839.84;;;8.15;100.00
46722;BME280;32455;43.430;23.136;2024-03-02T12:48:22;97847.84;;;7.84;100.00
46722;BME280;32455;43.430;23.136;2024-03-02T12:51:08;97849.59;;;7.58;100.00
46722;BME280;32455;43.430;23.136;2024-03-02T12:53:57;97850.41;;;7.59;100.00
46722;BME280;32455;43.430;23.136;2024-03-02T12:56:43;97847.28;;;7.62;100.00
46722;BME280;32455;43.430;23.136;2024-03-02T12:59:32;97853.06;;;8.03;100.00
46722;BME280;32455;43.430;23.136;2024-03-02T13:02:18;97854.19;;;7.89;100.00
46722;BME280;32455;43.430;23.136;2024-03-02T13:05:06;97849.91;;;8.20;100.00
46722;BME280;32455;43.430;23.136;2024-03-02T13:07:56;97857.69;;;8.21;100.00
46722;BME280;32455;43.430;23.136;2024-03-02T13:10:41;97853.94;;;8.36;100.00
46722;BME280;32455;43.430;23.136;2024-03-02T13:13:32;97848.13;;;8.07;100.00
46722;BME280;32455;43.430;23.136;2024-03-02T13:16:18;97854.00;;;7.84;100.00
46722;BME280;32455;43.430;23.136;2024-03-02T13:19:15;97851.44;;;8.02;100.00
46722;BME280;32455;43.430;23.136;2024-03-02T13:22:03;97852.59;;;8.13;100.00
46722;BME280;32455;43.430;23.136;2024-03-02T13:24:49;97857.03;;;8.33;100.00
46722;BME280;32455;43.430;23.136;2024-03-02T13:27:35;97859.13;;;8.24;100.00
46722;BME280;32455;43.430;23.136;2024-03-02T13:30:20;97866.34;;;8.23;100.00
46722;BME280;32455;43.430;23.136;2024-03-02T13:33:05;97868.13;;;8.36;100.00
46722;BME280;32455;43.430;23.136;2024-03-02T13:35:51;97861.75;;;8.37;100.00
46722;BME280;32455;43.430;23.136;2024-03-02T13:38:37;97863.13;;;8.08;100.00
46722;BME280;32455;43.430;23.136;2024-03-02T13:41:22;97861.81;;;8.24;100.00
46722;BME280;32455;43.430;23.136;2024-03-02T13:44:08;97870.13;;;8.09;100.00
46722;BME280;32455;43.430;23.136;2024-03-02T13:46:52;97863.59;;;8.05;100.00
46722;BME280;32455;43.430;23.136;2024-03-02T13:49:37;97868.97;;;8.37;100.00
46722;BME280;32455;43.430;23.136;2024-03-02T13:52:24;97870.41;;;8.33;100.00
46722;BME280;32455;43.430;23.136;2024-03-02T13:55:10;97864.00;;;7.95;100.00
46722;BME280;32455;43.430;23.136;2024-03-02T13:57:56;97868.47;;;8.08;100.00
46722;BME280;32455;43.430;23.136;2024-03-02T14:00:41;97864.84;;;7.96;100.00
46722;BME280;32455;43.430;23.136;2024-03-02T14:03:27;97875.47;;;8.09;100.00
46722;BME280;32455;43.430;23.136;2024-03-02T14:06:13;97877.31;;;8.09;100.00
46722;BME280;32455;43.430;23.136;2024-03-02T14:08:58;97883.66;;;8.21;100.00
46722;BME280;32455;43.430;23.136;2024-03-02T14:11:44;97873.50;;;8.29;100.00
46722;BME280;32455;43.430;23.136;2024-03-02T14:14:30;97869.16;;;8.35;100.00
46722;BME280;32455;43.430;23.136;2024-03-02T14:17:15;97870.97;;;8.10;100.00
46722;BME280;32455;43.430;23.136;2024-03-02T14:20:00;97871.97;;;8.09;100.00
46722;BME280;32455;43.430;23.136;2024-03-02T14:22:46;97869.41;;;8.27;100.00
46722;BME280;32455;43.430;23.136;2024-03-02T14:25:31;97870.06;;;8.22;100.00
46722;BME280;32455;43.430;23.136;2024-03-02T14:28:19;97876.34;;;8.41;100.00
46722;BME280;32455;43.430;23.136;2024-03-02T14:31:04;97870.00;;;8.36;100.00
46722;BME280;32455;43.430;23.136;2024-03-02T14:33:51;97866.28;;;7.98;100.00
46722;BME280;32455;43.430;23.136;2024-03-02T14:36:36;97871.56;;;8.12;100.00
46722;BME280;32455;43.430;23.136;2024-03-02T14:39:21;97871.00;;;8.35;100.00
46722;BME280;32455;43.430;23.136;2024-03-02T14:42:08;97874.84;;;8.14;100.00
46722;BME280;32455;43.430;23.136;2024-03-02T14:44:53;97870.66;;;8.24;100.00
46722;BME280;32455;43.430;23.136;2024-03-02T14:47:38;97878.59;;;8.44;100.00
46722;BME280;32455;43.430;23.136;2024-03-02T14:50:24;97879.25;;;8.40;100.00
46722;BME280;32455;43.430;23.136;2024-03-02T14:53:09;97879.88;;;8.35;100.00
46722;BME280;32455;43.430;23.136;2024-03-02T14:55:56;97883.06;;;8.12;100.00
46722;BME280;32455;43.430;23.136;2024-03-02T14:58:41;97884.69;;;8.20;100.00
46722;BME280;32455;43.430;23.136;2024-03-02T15:01:27;97885.69;;;8.25;100.00
46722;BME280;32455;43.430;23.136;2024-03-02T15:04:12;97888.44;;;8.12;100.00
46722;BME280;32455;43.430;23.136;2024-03-02T15:06:59;97886.31;;;8.27;100.00
46722;BME280;32455;43.430;23.136;2024-03-02T15:09:44;97882.75;;;8.34;100.00
46722;BME280;32455;43.430;23.136;2024-03-02T15:12:30;97890.78;;;8.40;100.00
46722;BME280;32455;43.430;23.136;2024-03-02T15:15:16;97897.00;;;8.27;100.00
46722;BME280;32455;43.430;23.136;2024-03-02T15:18:01;97887.06;;;8.35;100.00
46722;BME280;32455;43.430;23.136;2024-03-02T15:20:46;97891.66;;;8.27;100.00
46722;BME280;32455;43.430;23.136;2024-03-02T15:23:32;97897.41;;;8.31;100.00
46722;BME280;32455;43.430;23.136;2024-03-02T15:26:17;97897.66;;;8.23;100.00
46722;BME280;32455;43.430;23.136;2024-03-02T15:29:02;97895.78;;;8.23;100.00
46722;BME280;32455;43.430;23.136;2024-03-02T15:31:47;97894.56;;;8.19;100.00
46722;BME280;32455;43.430;23.136;2024-03-02T15:34:33;97894.59;;;8.13;100.00
46722;BME280;32455;43.430;23.136;2024-03-02T15:37:19;97894.53;;;8.26;100.00
46722;BME280;32455;43.430;23.136;2024-03-02T15:40:04;97897.44;;;8.24;100.00
46722;BME280;32455;43.430;23.136;2024-03-02T15:42:56;97896.00;;;8.22;100.00